LEZL/SVQ METAR and TAF weather

Enter ICAO airport designator
Station Type Date Time Source
LEZL METAR 2021/09/20 04:30 UTC NOAA

LEZL 200430Z 10002KT CAVOK 18/15 Q1017 NOSIG


Station Type Date Time Source
LEZL Decoded METAR 2021/09/20 04:30 UTC NOAA

Sevilla / San Pablo, Spain (LEZL) 37-25N 005-54W 31M
Sep 20, 2021 - 12:30 AM EDT / 2021.09.20 0430 UTC
Wind: from the E (100 degrees) at 2 MPH (2 KT):0
Visibility: greater than 7 mile(s):0
Temperature: 64 F (18 C)
Dew Point: 59 F (15 C)
Relative Humidity: 82%
Pressure (altimeter): 30.03 in. Hg (1017 hPa)
ob: LEZL 200430Z 10002KT CAVOK 18/15 Q1017 NOSIG
cycle: 4

Station Type Date Time Source
LEZL TAF 2021/09/20 03:27 UTC NOAA

TAF LEZL 200200Z 2003/2103 VRB03KT CAVOK TX32/2015Z TN16/2006Z
BECMG 2010/2012 25010KT

Example: see airport list